Time;durP1;ratioP1;P1;durP2;ratioP2;P2;SDS_P1;SDS_P2;PMS_P1;PMS_P2;Temp;Humidity;BMP_temperature;BMP_pressure;BME280_temperature;BME280_humidity;BME280_pressure;Samples;Min_cycle;Max_cycle;Signal;HPM_P1;HPM_P2
2023/10/16 00:01:10;;;;;;;0.70;0.70;;;10.90;99.90;;;;;;5046271;28;20211;-68
2023/10/16 00:03:41;;;;;;;2.70;0.80;;;10.90;99.90;;;;;;5046421;28;20197;-69
2023/10/16 00:06:11;;;;;;;0.70;0.67;;;10.90;99.90;;;;;;5052242;28;20243;-68
2023/10/16 00:08:46;;;;;;;1.27;1.00;;;10.90;99.90;;;;;;5048233;28;20332;-69
2023/10/16 00:11:17;;;;;;;2.10;1.00;;;10.80;99.90;;;;;;5038313;28;20190;-68
2023/10/16 00:13:47;;;;;;;0.80;0.80;;;10.90;99.90;;;;;;5050579;28;20192;-68
2023/10/16 00:16:16;;;;;;;0.70;0.70;;;10.90;99.90;;;;;;5083632;28;20581;-68
2023/10/16 00:18:45;;;;;;;1.53;0.90;;;10.90;99.90;;;;;;5044771;28;20206;-68
2023/10/16 00:21:13;;;;;;;1.43;0.90;;;10.90;99.90;;;;;;5075756;28;20211;-68
2023/10/16 00:23:41;;;;;;;1.27;0.97;;;10.80;99.90;;;;;;5045886;28;20266;-68
2023/10/16 00:26:10;;;;;;;0.80;0.77;;;10.80;99.90;;;;;;5053338;28;20202;-68
2023/10/16 00:28:44;;;;;;;1.70;0.97;;;10.80;99.90;;;;;;5047323;28;20203;-68
2023/10/16 00:31:12;;;;;;;2.50;1.23;;;10.80;99.90;;;;;;5058172;28;20291;-67
2023/10/16 00:33:40;;;;;;;1.27;0.97;;;10.80;99.90;;;;;;5042088;28;20213;-68
2023/10/16 00:36:07;;;;;;;1.17;0.70;;;10.80;99.90;;;;;;5047528;28;20223;-68
2023/10/16 00:38:37;;;;;;;1.13;0.90;;;10.80;99.90;;;;;;5077454;28;20198;-68
2023/10/16 00:41:17;;;;;;;1.83;0.80;;;10.80;99.90;;;;;;5072541;28;20285;-68
2023/10/16 00:43:46;;;;;;;0.80;0.80;;;10.80;99.90;;;;;;5040583;28;20190;-66
2023/10/16 00:46:25;;;;;;;0.67;0.67;;;10.80;99.90;;;;;;5081901;28;20257;-67
2023/10/16 00:48:53;;;;;;;1.50;0.70;;;10.80;99.90;;;;;;5042739;28;20198;-69
2023/10/16 00:51:21;;;;;;;2.53;1.00;;;10.70;99.90;;;;;;5078814;28;20815;-68
2023/10/16 00:53:48;;;;;;;0.57;0.50;;;10.80;99.90;;;;;;5042236;28;20584;-68
2023/10/16 00:56:18;;;;;;;1.03;0.93;;;10.80;99.90;;;;;;5045169;28;20298;-68
2023/10/16 00:58:48;;;;;;;0.90;0.60;;;10.80;99.90;;;;;;5043567;28;20655;-68
2023/10/16 01:03:53;;;;;;;1.37;0.90;;;10.80;99.90;;;;;;4999354;22;20229;-70
2023/10/16 01:06:27;;;;;;;1.13;0.80;;;10.80;99.90;;;;;;5009196;28;20201;-70
2023/10/16 01:08:55;;;;;;;1.77;0.70;;;10.80;99.90;;;;;;5018247;28;20503;-71
2023/10/16 01:11:26;;;;;;;0.97;0.80;;;10.80;99.90;;;;;;5001155;28;20198;-71
2023/10/16 01:13:55;;;;;;;3.57;1.10;;;10.80;99.90;;;;;;5011252;28;20224;-71
2023/10/16 01:16:23;;;;;;;1.77;0.80;;;10.80;99.90;;;;;;5008231;28;20219;-71
2023/10/16 01:18:50;;;;;;;1.47;1.00;;;10.70;99.90;;;;;;5010261;28;20724;-71
2023/10/16 01:21:19;;;;;;;2.63;1.00;;;10.70;99.90;;;;;;5005131;28;20203;-71
2023/10/16 01:23:51;;;;;;;1.90;0.83;;;10.70;99.90;;;;;;5018542;28;20284;-71
2023/10/16 01:26:18;;;;;;;1.07;0.90;;;10.70;99.90;;;;;;5007683;28;20195;-71
2023/10/16 01:28:45;;;;;;;1.23;0.80;;;10.70;99.90;;;;;;5014547;28;20263;-70
2023/10/16 01:31:13;;;;;;;0.70;0.70;;;10.70;99.90;;;;;;5009717;28;20197;-70
2023/10/16 01:33:44;;;;;;;2.03;1.10;;;10.70;99.90;;;;;;5003403;28;20215;-70
2023/10/16 01:36:11;;;;;;;0.63;0.63;;;10.70;99.90;;;;;;5003983;28;20287;-70
2023/10/16 01:38:38;;;;;;;0.70;0.70;;;10.70;99.90;;;;;;5013317;28;20215;-71
2023/10/16 01:41:08;;;;;;;0.53;0.53;;;10.70;99.90;;;;;;5007179;28;20545;-71
2023/10/16 01:43:36;;;;;;;1.90;1.00;;;10.70;99.90;;;;;;5012469;28;20271;-71
2023/10/16 01:46:08;;;;;;;2.77;0.80;;;10.70;99.90;;;;;;5009725;28;20195;-71
2023/10/16 01:48:37;;;;;;;1.63;0.83;;;10.70;99.90;;;;;;5011405;28;20682;-70
2023/10/16 01:51:06;;;;;;;1.30;0.90;;;10.70;99.90;;;;;;5010494;28;20281;-71
2023/10/16 01:53:36;;;;;;;1.17;0.70;;;10.70;99.90;;;;;;5016378;28;20191;-71
2023/10/16 01:56:12;;;;;;;0.80;0.80;;;10.70;99.90;;;;;;5011803;28;20230;-69
2023/10/16 01:58:42;;;;;;;0.87;0.60;;;10.70;99.90;;;;;;5012002;28;20238;-71
2023/10/16 02:01:10;;;;;;;0.93;0.77;;;10.80;99.90;;;;;;5008037;28;20207;-70
2023/10/16 02:03:43;;;;;;;0.73;0.73;;;10.80;99.90;;;;;;5013480;28;20308;-71
2023/10/16 02:06:12;;;;;;;0.90;0.73;;;10.80;99.90;;;;;;5011451;28;20260;-71
2023/10/16 02:08:39;;;;;;;1.53;0.80;;;10.80;99.90;;;;;;5012061;28;20608;-70
2023/10/16 02:11:07;;;;;;;1.83;0.90;;;10.80;99.90;;;;;;5011089;28;20207;-70
2023/10/16 02:13:35;;;;;;;0.60;0.57;;;10.80;99.90;;;;;;5010585;28;20677;-71
2023/10/16 02:16:06;;;;;;;0.50;0.50;;;10.80;99.90;;;;;;5011763;28;20655;-70
2023/10/16 02:18:37;;;;;;;0.57;0.50;;;10.80;99.90;;;;;;5012319;28;20289;-70
2023/10/16 02:21:04;;;;;;;0.50;0.50;;;10.80;99.90;;;;;;5010917;28;20210;-70
2023/10/16 02:23:32;;;;;;;1.43;0.70;;;10.80;99.90;;;;;;5016011;28;20649;-70
2023/10/16 02:26:01;;;;;;;0.60;0.60;;;10.90;99.90;;;;;;5015115;28;20306;-70
2023/10/16 02:28:31;;;;;;;0.40;0.40;;;10.80;99.90;;;;;;5009881;28;20288;-70
2023/10/16 02:31:10;;;;;;;1.37;0.30;;;10.80;99.90;;;;;;5002288;28;20225;-70
2023/10/16 02:33:38;;;;;;;0.30;0.30;;;10.90;99.90;;;;;;5011440;28;20190;-71
2023/10/16 02:36:05;;;;;;;0.30;0.30;;;10.90;99.90;;;;;;5007523;28;20219;-71
2023/10/16 02:38:32;;;;;;;0.40;0.40;;;10.90;99.90;;;;;;5012807;28;20560;-71
2023/10/16 02:41:03;;;;;;;0.40;0.40;;;10.90;99.90;;;;;;5011025;28;20272;-71
2023/10/16 02:43:31;;;;;;;1.63;0.47;;;10.90;99.90;;;;;;5013144;28;20202;-70
2023/10/16 02:46:01;;;;;;;0.37;0.33;;;10.90;99.90;;;;;;5000873;28;20660;-71
2023/10/16 02:48:29;;;;;;;0.40;0.40;;;10.80;99.90;;;;;;5010912;28;20223;-71
2023/10/16 02:50:57;;;;;;;1.30;0.40;;;10.80;99.90;;;;;;5004267;28;20253;-72
2023/10/16 02:53:26;;;;;;;0.60;0.40;;;10.90;99.90;;;;;;5013378;28;20281;-72
2023/10/16 02:55:57;;;;;;;0.50;0.50;;;10.80;99.90;;;;;;5011829;28;20215;-72
2023/10/16 02:58:26;;;;;;;0.93;0.47;;;10.80;99.90;;;;;;5009899;28;20209;-72
2023/10/16 03:00:55;;;;;;;0.43;0.43;;;10.90;99.90;;;;;;5010239;28;20743;-72
2023/10/16 03:03:24;;;;;;;0.30;0.30;;;10.90;99.90;;;;;;5008613;28;20256;-71
2023/10/16 03:05:53;;;;;;;0.43;0.43;;;10.90;99.90;;;;;;5019596;28;20200;-70
2023/10/16 03:08:22;;;;;;;0.40;0.40;;;10.90;99.90;;;;;;5007756;28;20282;-70
2023/10/16 03:10:51;;;;;;;0.30;0.30;;;10.90;99.90;;;;;;5018820;28;20625;-71
2023/10/16 03:13:18;;;;;;;1.50;0.40;;;10.90;99.90;;;;;;5010405;28;20203;-71
2023/10/16 03:15:47;;;;;;;0.50;0.40;;;10.80;99.90;;;;;;5017624;28;20355;-71
2023/10/16 03:18:17;;;;;;;0.30;0.30;;;10.80;99.90;;;;;;5011210;28;20229;-71
2023/10/16 03:20:46;;;;;;;0.47;0.30;;;10.90;99.90;;;;;;5015481;28;20212;-71
2023/10/16 03:23:18;;;;;;;0.40;0.40;;;10.90;99.90;;;;;;5010131;28;20214;-71
2023/10/16 03:25:51;;;;;;;0.30;0.30;;;10.80;99.90;;;;;;5015337;28;20186;-71
2023/10/16 03:28:18;;;;;;;0.30;0.30;;;10.90;99.90;;;;;;5009238;28;20298;-71
2023/10/16 03:30:47;;;;;;;0.77;0.40;;;10.80;99.90;;;;;;5012397;28;20203;-71
2023/10/16 03:33:15;;;;;;;0.60;0.40;;;10.90;99.90;;;;;;5009227;28;20207;-71
2023/10/16 03:35:45;;;;;;;0.30;0.30;;;10.80;99.90;;;;;;5010196;28;20215;-71
2023/10/16 03:38:24;;;;;;;1.17;0.50;;;10.80;99.90;;;;;;5010606;28;20207;-71
2023/10/16 03:40:52;;;;;;;0.50;0.40;;;10.80;99.90;;;;;;5011640;28;20622;-72
2023/10/16 03:43:22;;;;;;;1.77;0.30;;;10.90;99.90;;;;;;5009989;28;20195;-71
2023/10/16 03:45:50;;;;;;;0.33;0.33;;;10.90;99.90;;;;;;5011316;28;20207;-71
2023/10/16 03:48:19;;;;;;;0.87;0.30;;;10.90;99.90;;;;;;5009169;28;20241;-71
2023/10/16 03:50:46;;;;;;;0.30;0.30;;;11.00;99.90;;;;;;5011263;28;20204;-71
2023/10/16 03:53:16;;;;;;;0.50;0.50;;;11.00;99.90;;;;;;5010524;28;20386;-71
2023/10/16 03:55:44;;;;;;;0.30;0.30;;;10.90;99.90;;;;;;5011579;28;20233;-71
2023/10/16 03:58:12;;;;;;;0.50;0.50;;;11.00;99.90;;;;;;5010480;28;20276;-70
2023/10/16 04:03:27;;;;;;;0.60;0.60;;;11.00;99.90;;;;;;5003667;28;20245;-71
2023/10/16 04:05:55;;;;;;;0.50;0.50;;;11.00;99.90;;;;;;5010220;28;20636;-71
2023/10/16 04:08:23;;;;;;;0.60;0.47;;;11.00;99.90;;;;;;5007184;28;20257;-71
2023/10/16 04:10:53;;;;;;;1.03;0.47;;;11.10;99.90;;;;;;5011231;28;20285;-71
2023/10/16 04:13:25;;;;;;;1.80;0.57;;;11.10;99.90;;;;;;5008958;28;20211;-71
2023/10/16 04:16:13;;;;;;;0.97;0.50;;;11.10;99.90;;;;;;5012080;28;20301;-71
2023/10/16 04:18:41;;;;;;;0.60;0.50;;;11.00;99.90;;;;;;5010039;28;20221;-72
2023/10/16 04:23:55;;;;;;;1.03;0.63;;;11.00;99.90;;;;;;5010687;28;20799;-72
2023/10/16 04:29:29;;;;;;;0.40;0.40;;;11.00;99.90;;;;;;4970885;28;20627;-71
2023/10/16 04:31:56;;;;;;;0.50;0.50;;;11.00;99.90;;;;;;5012615;28;20214;-72
2023/10/16 04:34:34;;;;;;;0.40;0.40;;;11.00;99.90;;;;;;5006725;28;20195;-72
2023/10/16 04:43:17;;;;;;;0.60;0.60;;;11.10;99.90;;;;;;4948768;28;20552;-71
2023/10/16 04:48:39;;;;;;;0.60;0.60;;;11.10;99.90;;;;;;5009399;28;20295;-72
2023/10/16 04:51:15;;;;;;;0.93;0.50;;;11.10;99.90;;;;;;5011090;28;20273;-71
2023/10/16 04:54:13;;;;;;;1.03;0.80;;;11.10;99.90;;;;;;5007756;28;20346;-71
2023/10/16 04:59:47;;;;;;;0.83;0.83;;;11.10;99.90;;;;;;5004036;28;20195;-71
2023/10/16 05:02:18;;;;;;;0.80;0.80;;;11.10;99.90;;;;;;5020469;28;20333;-71
2023/10/16 05:05:32;;;;;;;1.20;1.10;;;11.10;99.90;;;;;;5007979;28;20290;-71
2023/10/16 05:07:53;;;;;;;1.60;1.43;;;11.10;99.90;;;;;;5007555;28;20218;-70
2023/10/16 05:13:24;;;;;;;1.77;1.10;;;11.00;99.90;;;;;;5012828;28;20875;-70
2023/10/16 05:18:48;;;;;;;0.70;0.70;;;10.80;99.90;;;;;;4973361;28;20203;-70
2023/10/16 06:14:11;;;;;;;1.10;1.00;;;10.50;99.90;;;;;;4996594;28;20289;-71
2023/10/16 06:16:39;;;;;;;1.40;1.10;;;10.60;99.90;;;;;;5009146;28;20647;-71
2023/10/16 06:19:14;;;;;;;1.23;0.83;;;10.60;99.90;;;;;;5006902;28;20204;-71
2023/10/16 06:21:46;;;;;;;0.90;0.90;;;10.60;99.90;;;;;;5007407;28;20199;-70
2023/10/16 06:24:27;;;;;;;1.00;0.90;;;10.60;99.90;;;;;;5003364;28;20214;-71
2023/10/16 06:26:55;;;;;;;2.57;1.77;;;10.60;99.90;;;;;;5005779;28;20194;-71
2023/10/16 06:29:24;;;;;;;1.70;1.30;;;10.60;99.90;;;;;;5003080;28;20229;-71
2023/10/16 06:31:53;;;;;;;1.43;1.33;;;10.70;99.90;;;;;;4999779;28;20192;-71
2023/10/16 06:34:23;;;;;;;1.17;1.07;;;10.60;99.90;;;;;;4992224;28;20201;-71
2023/10/16 06:36:51;;;;;;;1.10;1.00;;;10.70;99.90;;;;;;5007161;28;20238;-72
2023/10/16 06:39:29;;;;;;;0.90;0.70;;;10.80;99.90;;;;;;5010362;28;20227;-71
2023/10/16 06:41:56;;;;;;;0.97;0.97;;;10.80;99.90;;;;;;5011495;28;20587;-71
2023/10/16 06:44:28;;;;;;;0.70;0.70;;;10.90;99.90;;;;;;5007934;28;20252;-71
2023/10/16 06:46:59;;;;;;;0.60;0.60;;;10.90;99.90;;;;;;5008487;28;20199;-71
2023/10/16 06:49:35;;;;;;;1.43;1.03;;;10.90;99.90;;;;;;5010777;28;20199;-71
2023/10/16 06:52:04;;;;;;;1.20;0.93;;;11.00;99.90;;;;;;5003465;28;20683;-70
2023/10/16 06:54:31;;;;;;;1.53;0.90;;;11.00;99.90;;;;;;5014818;28;20208;-71
2023/10/16 06:57:04;;;;;;;0.87;0.87;;;11.00;99.90;;;;;;5010763;28;20215;-72
2023/10/16 06:59:32;;;;;;;0.80;0.80;;;11.00;99.90;;;;;;5009865;28;20702;-71
2023/10/16 07:01:59;;;;;;;1.37;1.00;;;11.00;99.90;;;;;;5010726;28;20195;-71
2023/10/16 07:04:29;;;;;;;1.77;1.63;;;11.00;99.90;;;;;;5001961;28;20202;-72
2023/10/16 07:06:57;;;;;;;2.43;1.83;;;11.00;99.90;;;;;;5009160;28;20221;-71
2023/10/16 07:09:35;;;;;;;2.00;1.57;;;11.00;99.90;;;;;;5005852;28;20199;-71
2023/10/16 07:12:04;;;;;;;1.43;1.23;;;10.90;99.90;;;;;;5003415;28;20550;-71
2023/10/16 07:14:31;;;;;;;2.60;1.93;;;11.00;99.90;;;;;;5014561;28;20191;-72
2023/10/16 07:16:59;;;;;;;2.27;1.20;;;11.00;99.90;;;;;;5006619;28;20221;-72
2023/10/16 07:19:28;;;;;;;2.27;1.20;;;11.00;99.90;;;;;;5015833;28;20651;-71
2023/10/16 07:21:56;;;;;;;2.70;1.63;;;11.00;99.90;;;;;;5011203;28;20257;-71
2023/10/16 07:24:23;;;;;;;1.63;1.00;;;11.00;99.90;;;;;;5008779;28;20195;-71
2023/10/16 07:26:50;;;;;;;1.40;1.00;;;11.00;99.90;;;;;;5009585;28;20198;-72
2023/10/16 07:29:21;;;;;;;1.10;1.00;;;11.10;99.90;;;;;;5009214;28;20705;-72
2023/10/16 07:31:49;;;;;;;0.87;0.87;;;11.10;99.90;;;;;;5003295;28;20202;-71
2023/10/16 07:34:16;;;;;;;0.77;0.77;;;11.00;99.90;;;;;;5005632;28;20190;-71
2023/10/16 07:36:46;;;;;;;0.83;0.70;;;11.10;99.90;;;;;;5004548;28;20589;-71
2023/10/16 07:39:13;;;;;;;1.20;0.80;;;11.00;99.90;;;;;;5008549;28;20215;-72
2023/10/16 07:41:40;;;;;;;0.60;0.60;;;11.00;99.90;;;;;;5007656;28;20631;-72
2023/10/16 07:44:07;;;;;;;0.50;0.50;;;11.00;99.90;;;;;;5012521;28;20581;-72
2023/10/16 07:46:36;;;;;;;1.30;0.77;;;11.00;99.90;;;;;;5007036;28;20543;-72
2023/10/16 07:49:09;;;;;;;0.83;0.77;;;11.00;99.90;;;;;;5011897;28;20689;-71
2023/10/16 07:51:37;;;;;;;1.00;0.90;;;11.00;99.90;;;;;;5009472;28;20201;-72
2023/10/16 07:54:06;;;;;;;1.17;0.70;;;11.00;99.90;;;;;;5009231;28;20194;-71
2023/10/16 07:56:35;;;;;;;1.80;0.60;;;11.00;99.90;;;;;;5009292;28;20209;-71
2023/10/16 07:59:10;;;;;;;1.23;0.83;;;11.00;99.90;;;;;;5007226;28;20199;-71
2023/10/16 08:01:48;;;;;;;1.80;1.03;;;11.00;99.90;;;;;;5002251;28;20198;-71
2023/10/16 08:07:05;;;;;;;0.63;0.63;;;10.90;99.90;;;;;;5004785;28;20194;-71
2023/10/16 08:09:48;;;;;;;0.70;0.70;;;10.90;99.90;;;;;;5010395;28;20650;-71
2023/10/16 08:12:19;;;;;;;1.60;0.93;;;10.90;99.90;;;;;;4994649;28;20194;-70
2023/10/16 08:14:46;;;;;;;0.80;0.80;;;10.90;99.90;;;;;;5009082;28;20272;-71
2023/10/16 08:17:17;;;;;;;1.97;1.10;;;10.80;99.90;;;;;;5003560;28;20204;-70
2023/10/16 08:19:45;;;;;;;2.33;1.10;;;10.80;99.90;;;;;;5007718;28;20297;-70
2023/10/16 08:22:13;;;;;;;1.00;0.83;;;10.80;99.90;;;;;;5002609;28;20576;-70
2023/10/16 08:24:57;;;;;;;0.90;0.90;;;10.70;99.90;;;;;;5006277;28;20196;-70
2023/10/16 08:27:40;;;;;;;1.00;0.73;;;10.70;99.90;;;;;;5006403;28;20542;-69
2023/10/16 08:30:18;;;;;;;1.30;0.73;;;10.70;99.90;;;;;;5007148;28;20233;-70
2023/10/16 08:32:54;;;;;;;1.57;0.80;;;10.60;99.90;;;;;;5000476;28;20270;-70
2023/10/16 08:35:21;;;;;;;0.70;0.70;;;10.60;99.90;;;;;;4998129;28;20198;-70
2023/10/16 08:37:56;;;;;;;1.30;0.90;;;10.60;99.90;;;;;;5005230;28;20308;-71
2023/10/16 08:40:32;;;;;;;2.53;0.90;;;10.60;99.90;;;;;;5014755;28;20250;-70
2023/10/16 08:43:03;;;;;;;0.70;0.70;;;10.60;99.90;;;;;;5005292;28;20840;-71
2023/10/16 08:45:32;;;;;;;0.67;0.67;;;10.60;99.90;;;;;;5012217;28;20258;-70
2023/10/16 08:48:00;;;;;;;1.07;0.97;;;10.60;99.90;;;;;;5007240;28;20195;-70
2023/10/16 08:50:40;;;;;;;0.83;0.70;;;10.70;99.90;;;;;;5011732;28;20639;-71
2023/10/16 08:53:30;;;;;;;1.50;0.87;;;10.80;99.90;;;;;;5009654;28;20285;-70
2023/10/16 08:56:03;;;;;;;1.17;0.83;;;10.80;99.90;;;;;;5006812;28;20192;-71
2023/10/16 08:58:38;;;;;;;1.67;1.00;;;10.80;99.90;;;;;;5009899;28;20328;-70
2023/10/16 09:01:08;;;;;;;1.00;0.90;;;10.90;99.90;;;;;;5001800;28;20187;-71
2023/10/16 09:03:42;;;;;;;1.67;1.57;;;10.90;99.90;;;;;;5007909;28;20259;-71
2023/10/16 09:06:12;;;;;;;1.40;1.20;;;11.00;99.90;;;;;;5004935;28;20256;-71
2023/10/16 09:08:41;;;;;;;1.73;1.30;;;11.00;99.90;;;;;;5007663;28;20199;-71
2023/10/16 09:11:10;;;;;;;1.10;1.10;;;11.00;99.90;;;;;;5007524;28;20755;-71
2023/10/16 09:13:38;;;;;;;1.50;0.83;;;11.00;99.90;;;;;;5004244;28;20218;-71
2023/10/16 09:16:11;;;;;;;1.33;0.83;;;11.00;99.90;;;;;;5007168;28;20230;-71
2023/10/16 09:18:39;;;;;;;1.73;0.90;;;11.10;99.90;;;;;;5009388;28;20303;-71
2023/10/16 09:21:14;;;;;;;1.03;1.03;;;11.20;99.90;;;;;;5004893;28;20559;-71
2023/10/16 09:23:42;;;;;;;1.23;1.07;;;11.20;99.90;;;;;;5002863;28;20291;-71
2023/10/16 09:26:15;;;;;;;1.20;1.10;;;11.20;99.90;;;;;;5005301;28;20219;-71
2023/10/16 09:28:44;;;;;;;0.87;0.80;;;11.30;99.90;;;;;;5006293;28;20186;-70
2023/10/16 09:31:17;;;;;;;0.90;0.90;;;11.30;99.90;;;;;;5006719;28;20741;-70
2023/10/16 09:33:44;;;;;;;0.80;0.80;;;11.30;99.90;;;;;;5007157;28;20212;-71
2023/10/16 09:36:18;;;;;;;1.30;1.20;;;11.40;99.90;;;;;;5005750;28;20246;-70
2023/10/16 09:38:52;;;;;;;1.73;1.07;;;11.40;99.90;;;;;;5007863;28;20553;-71
2023/10/16 09:41:40;;;;;;;1.67;1.17;;;11.50;99.90;;;;;;5001034;28;20583;-71
2023/10/16 09:44:09;;;;;;;0.80;0.80;;;11.60;99.90;;;;;;5006202;28;20257;-71
2023/10/16 09:46:52;;;;;;;1.07;1.03;;;11.60;99.90;;;;;;5005027;28;20310;-71
2023/10/16 09:49:22;;;;;;;1.00;0.90;;;11.60;99.90;;;;;;5004586;28;20189;-71
2023/10/16 09:51:51;;;;;;;1.90;1.50;;;11.70;99.90;;;;;;5003819;28;20227;-71
2023/10/16 09:54:21;;;;;;;1.00;1.00;;;11.70;99.90;;;;;;5006750;28;20283;-71
2023/10/16 09:56:58;;;;;;;1.20;1.07;;;11.80;99.90;;;;;;5004612;28;20215;-71
2023/10/16 09:59:31;;;;;;;1.13;0.90;;;11.90;99.90;;;;;;5004569;28;20618;-71
2023/10/16 10:02:05;;;;;;;1.10;1.10;;;12.00;99.90;;;;;;4995817;28;20672;-71
2023/10/16 10:04:35;;;;;;;1.83;0.90;;;12.00;99.90;;;;;;5007509;28;20549;-71
2023/10/16 10:07:11;;;;;;;1.57;1.10;;;12.00;99.90;;;;;;5000063;28;20196;-71
2023/10/16 10:09:42;;;;;;;1.10;1.00;;;12.00;99.90;;;;;;5003613;28;20283;-70
2023/10/16 10:12:23;;;;;;;1.10;1.03;;;12.10;99.90;;;;;;4998635;28;20210;-70
2023/10/16 10:15:07;;;;;;;2.20;1.23;;;12.10;99.90;;;;;;5000272;28;20241;-70
2023/10/16 10:17:37;;;;;;;2.13;1.17;;;12.00;99.90;;;;;;5002902;28;20209;-71
2023/10/16 10:20:09;;;;;;;2.40;1.20;;;12.00;99.90;;;;;;5009238;28;20694;-71
2023/10/16 10:22:38;;;;;;;1.83;1.00;;;11.90;99.90;;;;;;4999899;28;20203;-71
2023/10/16 10:25:16;;;;;;;2.17;1.37;;;11.90;99.90;;;;;;5008968;28;20196;-71
2023/10/16 10:27:45;;;;;;;2.63;1.37;;;11.90;99.90;;;;;;5008853;28;20282;-70
2023/10/16 10:30:17;;;;;;;1.40;1.30;;;11.90;99.90;;;;;;5015019;28;20202;-71
2023/10/16 10:32:52;;;;;;;1.17;1.03;;;11.90;99.90;;;;;;5004812;28;20606;-70
2023/10/16 10:35:23;;;;;;;1.50;1.33;;;11.80;99.90;;;;;;5008330;28;20559;-72
2023/10/16 10:37:51;;;;;;;1.90;1.20;;;11.90;99.90;;;;;;5007376;28;20516;-72
2023/10/16 10:40:22;;;;;;;1.57;0.90;;;11.90;99.90;;;;;;5012888;28;20279;-71
2023/10/16 10:42:54;;;;;;;0.90;0.90;;;11.90;99.90;;;;;;5005662;28;20273;-71
2023/10/16 10:45:34;;;;;;;0.70;0.70;;;12.10;99.90;;;;;;5011350;28;20322;-71
2023/10/16 10:48:09;;;;;;;0.80;0.80;;;12.10;99.90;;;;;;5007591;28;20250;-71
2023/10/16 10:50:39;;;;;;;1.20;0.97;;;12.20;99.90;;;;;;5011069;28;20199;-72
2023/10/16 10:53:16;;;;;;;0.90;0.90;;;12.20;99.90;;;;;;4999907;28;20890;-71
2023/10/16 10:55:59;;;;;;;2.43;1.13;;;12.20;99.90;;;;;;5011184;28;20334;-71
2023/10/16 10:58:31;;;;;;;2.83;0.90;;;12.20;99.90;;;;;;5009840;28;20265;-71
2023/10/16 11:01:15;;;;;;;3.00;1.47;;;12.10;99.90;;;;;;5009528;28;20280;-70
2023/10/16 11:03:45;;;;;;;0.80;0.80;;;12.10;99.90;;;;;;5008459;28;20623;-70
2023/10/16 11:06:16;;;;;;;1.27;1.17;;;12.10;99.90;;;;;;5014524;28;20226;-71
2023/10/16 11:08:47;;;;;;;5.80;1.30;;;12.10;99.90;;;;;;5008454;28;20198;-71
2023/10/16 11:11:15;;;;;;;1.90;1.40;;;12.10;99.90;;;;;;5010024;28;20451;-71
2023/10/16 11:13:47;;;;;;;1.53;1.33;;;12.00;99.90;;;;;;5000879;28;20262;-71
2023/10/16 11:16:14;;;;;;;1.40;1.10;;;12.00;99.90;;;;;;5007011;28;20570;-71
2023/10/16 11:18:56;;;;;;;2.10;1.30;;;12.00;99.90;;;;;;5007306;28;20622;-71
2023/10/16 11:21:25;;;;;;;1.90;1.30;;;12.00;99.90;;;;;;5010530;28;20191;-71
2023/10/16 11:23:55;;;;;;;1.20;1.10;;;12.10;99.90;;;;;;5006516;28;20294;-71
2023/10/16 11:26:23;;;;;;;2.67;1.43;;;12.10;99.90;;;;;;5013581;28;20258;-71
2023/10/16 11:28:52;;;;;;;1.77;1.17;;;12.20;99.90;;;;;;5007670;28;20199;-71
2023/10/16 11:31:20;;;;;;;2.10;1.20;;;12.20;99.90;;;;;;5011355;28;20262;-71
2023/10/16 11:34:07;;;;;;;1.80;0.80;;;12.20;99.90;;;;;;5005000;28;20207;-71
2023/10/16 11:36:35;;;;;;;0.70;0.70;;;12.20;99.90;;;;;;5009026;28;20238;-70
2023/10/16 11:39:03;;;;;;;1.20;0.87;;;12.20;99.90;;;;;;5003560;28;20218;-71
2023/10/16 11:41:30;;;;;;;2.00;1.00;;;12.20;99.90;;;;;;5007441;28;20218;-69
2023/10/16 11:44:01;;;;;;;0.80;0.80;;;12.20;99.90;;;;;;5008222;28;20258;-70
2023/10/16 11:46:31;;;;;;;0.90;0.63;;;12.20;99.90;;;;;;5009341;28;20242;-71
2023/10/16 11:49:17;;;;;;;3.23;1.10;;;12.20;99.90;;;;;;5003792;28;20198;-71
2023/10/16 11:51:46;;;;;;;1.90;1.00;;;12.20;99.90;;;;;;5003300;28;20270;-70
2023/10/16 11:54:19;;;;;;;1.07;0.80;;;12.20;99.90;;;;;;5005426;28;20322;-71
2023/10/16 11:56:48;;;;;;;0.93;0.77;;;12.20;99.90;;;;;;5014243;28;20362;-71
2023/10/16 11:59:19;;;;;;;1.20;1.10;;;12.20;99.90;;;;;;5004372;28;20416;-70
2023/10/16 12:01:46;;;;;;;1.00;0.90;;;12.20;99.90;;;;;;4999721;28;20723;-71
2023/10/16 12:04:17;;;;;;;1.17;1.00;;;12.30;99.90;;;;;;4996077;28;20282;-72
2023/10/16 12:06:45;;;;;;;1.50;1.20;;;12.30;99.90;;;;;;5006138;28;20201;-71
2023/10/16 12:09:14;;;;;;;1.63;0.90;;;12.30;99.90;;;;;;5000471;28;20202;-71
2023/10/16 12:11:42;;;;;;;1.83;1.10;;;12.30;99.90;;;;;;5011717;28;20191;-71
2023/10/16 12:14:13;;;;;;;0.87;0.77;;;12.40;99.90;;;;;;5002772;28;20223;-71
2023/10/16 12:16:44;;;;;;;1.90;0.90;;;12.30;99.90;;;;;;5008037;28;20196;-71
2023/10/16 12:19:12;;;;;;;1.50;0.90;;;12.40;99.90;;;;;;5002817;28;20218;-70
2023/10/16 12:21:39;;;;;;;2.50;1.07;;;12.50;99.90;;;;;;5008232;28;20898;-70
2023/10/16 12:24:07;;;;;;;1.10;0.90;;;12.50;99.90;;;;;;5006365;28;20258;-70
2023/10/16 12:26:35;;;;;;;1.20;1.10;;;12.50;99.90;;;;;;5008679;28;20615;-70
2023/10/16 12:29:02;;;;;;;1.77;1.10;;;12.50;99.90;;;;;;5003936;28;20203;-70
2023/10/16 12:31:30;;;;;;;1.40;1.30;;;12.60;99.90;;;;;;5012745;28;20594;-70
2023/10/16 12:33:59;;;;;;;1.00;1.00;;;12.60;99.90;;;;;;5007332;28;20230;-70
2023/10/16 12:36:29;;;;;;;1.43;0.93;;;12.70;99.90;;;;;;5010544;28;20298;-70
2023/10/16 12:38:56;;;;;;;1.20;1.00;;;12.70;99.90;;;;;;5007018;28;20724;-71
2023/10/16 12:41:23;;;;;;;0.77;0.73;;;12.80;99.90;;;;;;5006225;28;20278;-71
2023/10/16 12:43:50;;;;;;;1.47;0.90;;;12.80;99.90;;;;;;5006746;28;20200;-71
2023/10/16 12:46:18;;;;;;;1.77;1.00;;;12.80;99.90;;;;;;5007260;28;20206;-71
2023/10/16 12:48:45;;;;;;;1.30;1.00;;;12.80;99.90;;;;;;5005063;28;20197;-71
2023/10/16 12:51:17;;;;;;;1.20;1.00;;;12.90;99.90;;;;;;5005114;28;20368;-71
2023/10/16 12:53:45;;;;;;;0.70;0.70;;;12.90;99.90;;;;;;5005138;28;20654;-72
2023/10/16 12:56:13;;;;;;;1.50;1.03;;;12.90;99.90;;;;;;5002241;28;20273;-72
2023/10/16 12:58:40;;;;;;;1.17;0.80;;;13.00;99.90;;;;;;5003346;28;20216;-72
2023/10/16 13:01:10;;;;;;;0.93;0.87;;;12.90;99.90;;;;;;5003510;28;20304;-71
2023/10/16 13:03:37;;;;;;;3.93;1.20;;;13.00;99.90;;;;;;5002463;28;20242;-72
2023/10/16 13:06:06;;;;;;;1.07;0.83;;;13.00;99.90;;;;;;5008278;28;20195;-72
2023/10/16 13:08:35;;;;;;;1.07;0.97;;;13.00;99.90;;;;;;5001890;28;20203;-72
2023/10/16 13:11:02;;;;;;;1.43;1.00;;;13.00;99.90;;;;;;5005507;28;20274;-71
2023/10/16 13:13:30;;;;;;;0.60;0.60;;;13.00;99.90;;;;;;5008318;28;20664;-71
2023/10/16 13:15:58;;;;;;;2.70;1.00;;;13.00;99.90;;;;;;5008073;28;20611;-71
2023/10/16 13:18:28;;;;;;;1.97;0.97;;;13.00;99.90;;;;;;5006266;28;20215;-71
2023/10/16 13:21:04;;;;;;;1.00;0.90;;;13.00;99.90;;;;;;5003095;28;20890;-71
2023/10/16 13:23:36;;;;;;;1.10;1.10;;;13.00;99.90;;;;;;5007966;28;20345;-71
2023/10/16 13:26:08;;;;;;;0.90;0.70;;;13.00;99.90;;;;;;5007382;28;20307;-71
2023/10/16 13:28:40;;;;;;;1.43;1.00;;;13.00;99.90;;;;;;5007801;28;20203;-71
2023/10/16 13:31:10;;;;;;;1.93;1.07;;;13.00;99.90;;;;;;5007172;28;20204;-71
2023/10/16 13:33:41;;;;;;;0.80;0.70;;;13.00;99.90;;;;;;5006584;28;20199;-71
2023/10/16 13:36:11;;;;;;;1.43;0.80;;;12.90;99.90;;;;;;5003162;28;20271;-71
2023/10/16 13:38:39;;;;;;;0.60;0.60;;;12.90;99.90;;;;;;5006992;28;20220;-71
2023/10/16 13:41:17;;;;;;;0.83;0.60;;;12.90;99.90;;;;;;5004855;28;20685;-70
2023/10/16 13:43:46;;;;;;;1.80;0.50;;;13.00;99.90;;;;;;4998332;28;20319;-70
2023/10/16 13:46:13;;;;;;;0.53;0.53;;;12.90;99.90;;;;;;5004748;28;20537;-70
2023/10/16 13:48:45;;;;;;;0.90;0.60;;;12.90;99.90;;;;;;5005952;28;20193;-70
2023/10/16 13:51:16;;;;;;;0.70;0.70;;;12.90;99.90;;;;;;5009451;28;20196;-70
2023/10/16 13:53:43;;;;;;;0.50;0.50;;;12.80;99.90;;;;;;5006904;28;20852;-71
2023/10/16 13:56:15;;;;;;;0.97;0.70;;;12.90;99.90;;;;;;5009643;28;20193;-71
2023/10/16 13:58:45;;;;;;;1.10;0.60;;;12.90;99.90;;;;;;5007704;28;20489;-70
2023/10/16 14:01:14;;;;;;;0.80;0.80;;;12.90;99.90;;;;;;5009240;28;20227;-71
2023/10/16 14:03:44;;;;;;;0.80;0.80;;;12.90;99.90;;;;;;5009077;28;20712;-71
2023/10/16 14:06:22;;;;;;;1.33;0.80;;;12.90;99.90;;;;;;5009960;28;20199;-71
2023/10/16 14:08:50;;;;;;;0.50;0.50;;;12.90;99.90;;;;;;5013268;28;20296;-72
2023/10/16 14:11:28;;;;;;;0.83;0.83;;;12.90;99.90;;;;;;5003713;28;20280;-71
2023/10/16 14:13:57;;;;;;;0.50;0.50;;;12.90;99.90;;;;;;5018769;28;20678;-71
2023/10/16 14:16:24;;;;;;;0.77;0.77;;;12.90;99.90;;;;;;5016793;28;20207;-71
2023/10/16 14:18:53;;;;;;;0.50;0.50;;;12.90;99.90;;;;;;5013577;28;20216;-72
2023/10/16 14:21:23;;;;;;;0.87;0.80;;;12.90;99.90;;;;;;5011679;28;20197;-71
2023/10/16 14:23:51;;;;;;;1.47;0.50;;;13.00;99.90;;;;;;5010727;28;20194;-70
2023/10/16 14:26:22;;;;;;;0.63;0.63;;;13.00;99.90;;;;;;5007647;28;20560;-71
2023/10/16 14:28:53;;;;;;;0.70;0.70;;;13.00;99.90;;;;;;5016082;28;20216;-70
2023/10/16 14:31:24;;;;;;;1.53;1.00;;;13.00;99.90;;;;;;5014166;28;20191;-71